EPWA/WAW METAR and TAF weather

Enter ICAO airport designator
Station Type Date Time Source
EPWA METAR 2018/01/16 09:30 UTC NOAA

EPWA 160930Z 15016KT CAVOK M04/M09 Q1004 NOSIG


Station Type Date Time Source
EPWA Decoded METAR 2018/01/16 09:30 UTC NOAA

Warszawa-Okecie, Poland (EPWA) 52-10N 020-58E 107M
Jan 16, 2018 - 04:30 AM EST / 2018.01.16 0930 UTC
Wind: from the SSE (150 degrees) at 18 MPH (16 KT):0
Visibility: greater than 7 mile(s):0
Temperature: 24 F (-4 C)
Windchill: 10 F (-12 C):1
Dew Point: 15 F (-9 C)
Relative Humidity: 68%
Pressure (altimeter): 29.65 in. Hg (1004 hPa)
ob: EPWA 160930Z 15016KT CAVOK M04/M09 Q1004 NOSIG
cycle: 9

Station Type Date Time Source
EPWA TAF 2018/01/16 06:33 UTC NOAA

TAF EPWA 160530Z 1606/1706 15016KT CAVOK
TEMPO 1607/1614 16020G32KT
BECMG 1612/1614 3000 -SN BKN008 OVC014
TEMPO 1614/1702 16016G28KT 0800 SN BLSN OVC002
BECMG 1702/1705 26015KT 9999
TEMPO 1704/1706 26018G30KT 3000 -SN BKN007


Example: see airport list